Time;durP1;ratioP1;P1;durP2;ratioP2;P2;SDS_P1;SDS_P2;PMS_P1;PMS_P2;Temp;Humidity;BMP_temperature;BMP_pressure;BME280_temperature;BME280_humidity;BME280_pressure;Samples;Min_cycle;Max_cycle;Signal;HPM_P1;HPM_P2
2021/09/15 04:52:24;;;;;;;25.83;23.42;;;;;;;;;;5104957;23;20108;-73
2021/09/15 04:54:51;;;;;;;26.13;23.40;;;;;;;;;;4990674;28;20042;-72
2021/09/15 04:57:19;;;;;;;25.55;22.85;;;;;;;;;;4990076;28;20580;-72
2021/09/15 04:59:46;;;;;;;26.58;23.55;;;;;;;;;;4986235;28;20038;-72
2021/09/15 05:02:13;;;;;;;28.58;25.75;;;;;;;;;;5026848;28;20153;-71
2021/09/15 05:04:43;;;;;;;28.65;25.80;;;;;;;;;;5239895;23;20141;-71
2021/09/15 05:07:19;;;;;;;28.90;26.30;;;;;;;;;;4958955;28;20513;-72
2021/09/15 05:09:49;;;;;;;29.48;26.45;;;;;;;;;;4966855;28;20046;-70
2021/09/15 05:12:17;;;;;;;27.45;24.58;;;;;;;;;;4981057;28;20054;-70
2021/09/15 05:14:48;;;;;;;26.13;23.70;;;;;;;;;;4961045;28;20277;-70
2021/09/15 05:17:15;;;;;;;30.23;25.33;;;;;;;;;;4953656;28;20051;-71
2021/09/15 05:19:43;;;;;;;25.80;23.08;;;;;;;;;;4954115;28;20129;-71
2021/09/15 05:22:12;;;;;;;28.10;25.05;;;;;;;;;;4954396;28;20038;-71
2021/09/15 05:24:39;;;;;;;27.98;25.30;;;;;;;;;;4971854;28;20266;-70
2021/09/15 05:27:08;;;;;;;29.30;25.75;;;;;;;;;;4955193;28;20541;-71
2021/09/15 05:29:36;;;;;;;30.27;27.45;;;;;;;;;;4962669;28;20518;-70
2021/09/15 05:32:04;;;;;;;32.72;29.23;;;;;;;;;;4954849;28;20094;-70
2021/09/15 05:34:31;;;;;;;35.85;28.85;;;;;;;;;;4955178;28;20047;-70
2021/09/15 05:36:59;;;;;;;30.70;27.02;;;;;;;;;;4954208;28;20502;-71
2021/09/15 05:39:26;;;;;;;30.75;27.42;;;;;;;;;;4971671;28;20050;-71
2021/09/15 05:41:54;;;;;;;30.95;27.48;;;;;;;;;;4954820;28;20049;-71
2021/09/15 05:44:22;;;;;;;36.13;25.55;;;;;;;;;;4971426;28;20042;-71
2021/09/15 05:46:50;;;;;;;34.35;26.83;;;;;;;;;;4953734;28;20070;-70
2021/09/15 05:49:17;;;;;;;28.13;25.35;;;;;;;;;;4953446;28;20070;-71
2021/09/15 05:51:46;;;;;;;27.40;24.63;;;;;;;;;;4954798;28;20117;-70
2021/09/15 05:54:13;;;;;;;28.02;25.00;;;;;;;;;;4953329;28;20051;-70
2021/09/15 05:56:42;;;;;;;27.75;24.90;;;;;;;;;;4953535;28;20134;-70
2021/09/15 05:59:09;;;;;;;27.63;24.95;;;;;;;;;;4954357;28;20522;-71
2021/09/15 06:01:38;;;;;;;28.27;25.35;;;;;;;;;;4954569;28;20054;-70
2021/09/15 06:04:06;;;;;;;26.75;23.98;;;;;;;;;;4950258;28;20447;-71
2021/09/15 06:06:33;;;;;;;27.60;24.60;;;;;;;;;;4952085;28;20435;-70
2021/09/15 06:09:02;;;;;;;28.65;25.58;;;;;;;;;;4951347;28;20058;-71
2021/09/15 06:11:31;;;;;;;30.08;26.45;;;;;;;;;;4950429;28;20146;-70
2021/09/15 06:13:58;;;;;;;30.05;25.77;;;;;;;;;;4950129;28;20466;-71
2021/09/15 06:16:25;;;;;;;28.95;25.88;;;;;;;;;;4950130;28;20043;-70
2021/09/15 06:18:54;;;;;;;28.60;25.52;;;;;;;;;;4951009;28;20481;-70
2021/09/15 06:21:40;;;;;;;27.73;24.80;;;;;;;;;;4952170;28;20477;-71
2021/09/15 06:24:15;;;;;;;31.38;26.95;;;;;;;;;;4950447;28;20050;-71
2021/09/15 06:26:43;;;;;;;30.98;27.67;;;;;;;;;;4949984;28;20394;-70
2021/09/15 06:29:10;;;;;;;34.00;27.30;;;;;;;;;;4951387;29;20388;-70
2021/09/15 06:31:37;;;;;;;31.63;28.40;;;;;;;;;;4950612;28;20499;-71
2021/09/15 06:34:06;;;;;;;32.95;28.70;;;;;;;;;;4947535;28;20103;-71
2021/09/15 06:36:34;;;;;;;31.95;28.85;;;;;;;;;;4950235;28;20510;-70
2021/09/15 06:39:01;;;;;;;33.53;30.13;;;;;;;;;;4950907;29;20043;-70
2021/09/15 06:41:28;;;;;;;32.35;29.08;;;;;;;;;;4949912;28;20059;-69
2021/09/15 06:43:56;;;;;;;32.72;28.98;;;;;;;;;;4951237;28;20051;-70
2021/09/15 06:46:23;;;;;;;37.50;28.83;;;;;;;;;;4951617;28;20075;-70
2021/09/15 06:48:50;;;;;;;33.25;29.40;;;;;;;;;;4950539;28;20061;-70
2021/09/15 06:51:19;;;;;;;32.95;29.52;;;;;;;;;;4949968;28;20051;-69
2021/09/15 06:53:48;;;;;;;32.92;29.27;;;;;;;;;;4948601;28;20455;-70
2021/09/15 06:56:15;;;;;;;32.33;28.95;;;;;;;;;;4952071;28;20077;-69
2021/09/15 06:58:43;;;;;;;31.95;28.50;;;;;;;;;;4951911;28;20073;-70
2021/09/15 07:01:10;;;;;;;32.38;29.00;;;;;;;;;;4951310;28;20500;-69
2021/09/15 07:03:39;;;;;;;31.63;28.50;;;;;;;;;;4950653;28;20067;-69
2021/09/15 07:06:06;;;;;;;31.02;27.73;;;;;;;;;;4952639;28;20043;-69
2021/09/15 07:08:35;;;;;;;31.00;27.85;;;;;;;;;;4950930;28;20043;-70
2021/09/15 07:11:02;;;;;;;31.55;28.30;;;;;;;;;;4946908;28;20242;-69
2021/09/15 07:13:29;;;;;;;34.05;30.55;;;;;;;;;;4938270;28;20043;-68
2021/09/15 07:15:58;;;;;;;35.42;29.20;;;;;;;;;;4949816;29;20150;-69
2021/09/15 07:18:26;;;;;;;35.33;31.75;;;;;;;;;;4948799;28;20094;-71
2021/09/15 07:20:54;;;;;;;36.92;33.00;;;;;;;;;;4949752;28;20135;-68
2021/09/15 07:23:21;;;;;;;36.13;32.25;;;;;;;;;;4953826;28;20074;-68
2021/09/15 07:25:50;;;;;;;36.67;32.97;;;;;;;;;;4953666;28;20142;-69
2021/09/15 07:28:17;;;;;;;38.88;34.92;;;;;;;;;;4954536;28;20043;-69
2021/09/15 07:30:44;;;;;;;43.60;37.08;;;;;;;;;;4952392;28;20049;-69
2021/09/15 07:33:12;;;;;;;40.50;36.15;;;;;;;;;;4954587;29;20043;-70
2021/09/15 07:35:39;;;;;;;44.08;37.30;;;;;;;;;;4940830;28;20043;-69
2021/09/15 07:38:07;;;;;;;41.05;36.05;;;;;;;;;;4949706;28;20047;-70
2021/09/15 07:40:34;;;;;;;41.85;36.20;;;;;;;;;;4951911;28;20414;-69
2021/09/15 07:43:03;;;;;;;43.17;37.03;;;;;;;;;;4944139;28;20099;-70
2021/09/15 07:45:30;;;;;;;37.50;33.85;;;;;;;;;;4952684;28;20039;-70
2021/09/15 07:47:58;;;;;;;40.65;36.50;;;;;;;;;;4951912;28;20529;-69
2021/09/15 07:50:25;;;;;;;39.97;35.80;;;;;;;;;;4952232;28;20055;-69
2021/09/15 07:52:53;;;;;;;44.33;39.78;;;;;;;;;;4954974;28;20039;-69
2021/09/15 07:55:22;;;;;;;44.90;40.25;;;;;;;;;;4961993;28;20414;-70
2021/09/15 07:57:53;;;;;;;45.08;40.22;;;;;;;;;;4961654;28;20054;-69
2021/09/15 08:00:21;;;;;;;49.45;44.47;;;;;;;;;;4954851;28;20043;-69
2021/09/15 08:02:48;;;;;;;49.55;43.88;;;;;;;;;;4953928;28;20130;-69
2021/09/15 08:05:16;;;;;;;51.97;45.65;;;;;;;;;;4966518;28;20399;-70
2021/09/15 08:07:43;;;;;;;55.30;46.30;;;;;;;;;;4973964;28;20049;-69
2021/09/15 08:10:11;;;;;;;50.28;44.80;;;;;;;;;;4974501;28;20134;-69
2021/09/15 08:12:39;;;;;;;49.50;43.83;;;;;;;;;;4957251;28;20070;-71
2021/09/15 08:15:07;;;;;;;50.03;44.75;;;;;;;;;;4956074;28;20053;-70
2021/09/15 08:17:36;;;;;;;56.92;48.17;;;;;;;;;;4973617;28;20048;-70
2021/09/15 08:20:04;;;;;;;55.63;48.92;;;;;;;;;;4956811;28;20090;-69
2021/09/15 08:22:32;;;;;;;51.95;45.90;;;;;;;;;;4973569;28;20053;-69
2021/09/15 08:24:59;;;;;;;52.90;45.63;;;;;;;;;;4973247;28;20509;-69
2021/09/15 08:27:26;;;;;;;47.22;42.30;;;;;;;;;;4973626;28;20043;-69
2021/09/15 08:30:06;;;;;;;49.10;44.10;;;;;;;;;;4973529;28;20047;-69
2021/09/15 08:32:34;;;;;;;51.30;45.83;;;;;;;;;;4972827;28;20049;-69
2021/09/15 08:35:02;;;;;;;52.15;46.33;;;;;;;;;;4955117;28;20035;-69
2021/09/15 08:37:33;;;;;;;48.60;43.40;;;;;;;;;;4956451;28;20131;-69
2021/09/15 08:40:00;;;;;;;51.60;46.15;;;;;;;;;;4974061;28;20235;-69
2021/09/15 08:42:27;;;;;;;49.15;44.05;;;;;;;;;;4972519;28;20043;-69
2021/09/15 08:44:55;;;;;;;49.30;44.00;;;;;;;;;;4971062;28;20038;-69
2021/09/15 08:47:26;;;;;;;47.88;42.67;;;;;;;;;;4973818;28;20045;-68
2021/09/15 08:49:53;;;;;;;50.80;45.13;;;;;;;;;;4955340;28;20047;-69
2021/09/15 08:52:22;;;;;;;46.92;41.58;;;;;;;;;;4972114;28;20510;-68
2021/09/15 08:54:49;;;;;;;45.50;40.88;;;;;;;;;;4955086;28;20058;-69
2021/09/15 08:57:17;;;;;;;45.85;40.80;;;;;;;;;;4973029;28;20577;-69
2021/09/15 08:59:44;;;;;;;43.58;39.20;;;;;;;;;;4972996;28;20523;-68
2021/09/15 09:02:13;;;;;;;43.78;39.28;;;;;;;;;;4972598;28;20517;-68
2021/09/15 09:04:57;;;;;;;40.78;36.55;;;;;;;;;;4972832;28;20046;-68
2021/09/15 09:07:27;;;;;;;39.83;35.75;;;;;;;;;;4939058;28;20477;-68
2021/09/15 09:09:55;;;;;;;38.15;34.33;;;;;;;;;;4972845;28;20130;-69
2021/09/15 09:12:24;;;;;;;34.70;31.10;;;;;;;;;;4971282;28;20055;-69
2021/09/15 09:14:51;;;;;;;35.67;31.90;;;;;;;;;;4972394;28;20550;-69
2021/09/15 09:17:29;;;;;;;35.50;31.83;;;;;;;;;;4973004;28;20046;-69
2021/09/15 09:20:16;;;;;;;35.55;31.77;;;;;;;;;;4971613;28;20405;-69
2021/09/15 09:22:58;;;;;;;36.20;32.63;;;;;;;;;;4954184;28;20101;-69
2021/09/15 09:25:26;;;;;;;33.78;30.48;;;;;;;;;;4971864;28;20551;-69
2021/09/15 09:27:53;;;;;;;31.73;28.40;;;;;;;;;;4972448;28;20533;-69
2021/09/15 09:30:31;;;;;;;31.50;28.13;;;;;;;;;;4972484;28;20113;-69
2021/09/15 09:32:58;;;;;;;30.75;27.73;;;;;;;;;;4971952;28;20460;-69
2021/09/15 09:35:26;;;;;;;29.35;26.45;;;;;;;;;;4971572;28;20050;-71
2021/09/15 09:37:53;;;;;;;30.90;27.73;;;;;;;;;;4972449;28;20192;-69
2021/09/15 09:40:22;;;;;;;30.70;27.50;;;;;;;;;;4972673;28;20065;-70
2021/09/15 09:42:49;;;;;;;29.77;26.77;;;;;;;;;;4971646;28;20047;-69
2021/09/15 09:45:21;;;;;;;29.90;26.92;;;;;;;;;;4953364;28;20430;-69
2021/09/15 09:47:48;;;;;;;28.60;25.77;;;;;;;;;;4938382;28;20141;-69
2021/09/15 09:50:17;;;;;;;27.70;24.90;;;;;;;;;;4954376;28;20057;-69
2021/09/15 09:52:58;;;;;;;28.33;25.40;;;;;;;;;;4952315;28;20046;-69
2021/09/15 09:55:29;;;;;;;25.23;22.73;;;;;;;;;;4971242;28;20043;-69
2021/09/15 09:57:56;;;;;;;23.63;21.13;;;;;;;;;;4955792;28;20461;-69
2021/09/15 10:00:24;;;;;;;21.23;18.88;;;;;;;;;;4971643;28;20049;-69
2021/09/15 10:02:52;;;;;;;21.40;19.08;;;;;;;;;;4971016;28;20125;-69
2021/09/15 10:05:20;;;;;;;20.15;18.20;;;;;;;;;;4970953;28;20051;-70
2021/09/15 10:07:48;;;;;;;20.33;18.33;;;;;;;;;;4971522;28;20388;-70
2021/09/15 10:10:16;;;;;;;21.33;19.13;;;;;;;;;;4971117;28;20049;-70
2021/09/15 10:12:46;;;;;;;18.73;16.63;;;;;;;;;;4951524;28;20066;-69
2021/09/15 10:15:13;;;;;;;18.00;16.25;;;;;;;;;;4971241;28;20482;-69
2021/09/15 10:17:42;;;;;;;20.42;17.15;;;;;;;;;;4954899;28;20054;-69
2021/09/15 10:20:10;;;;;;;18.35;15.65;;;;;;;;;;4970779;28;20050;-69
2021/09/15 10:22:41;;;;;;;17.80;14.95;;;;;;;;;;4953255;28;20057;-71
2021/09/15 10:25:09;;;;;;;15.52;14.02;;;;;;;;;;4971496;28;20217;-70
2021/09/15 10:27:51;;;;;;;17.38;13.60;;;;;;;;;;4971413;28;20042;-69
2021/09/15 10:30:20;;;;;;;13.88;12.63;;;;;;;;;;4952879;28;20049;-69
2021/09/15 10:32:49;;;;;;;15.48;13.23;;;;;;;;;;4952751;28;20362;-69
2021/09/15 10:35:17;;;;;;;15.25;13.75;;;;;;;;;;4970665;28;20198;-69
2021/09/15 10:37:49;;;;;;;16.23;14.30;;;;;;;;;;4967178;28;20043;-69
2021/09/15 10:40:28;;;;;;;15.43;13.65;;;;;;;;;;4969297;28;20047;-69
2021/09/15 10:42:55;;;;;;;14.88;13.30;;;;;;;;;;4970555;28;20078;-69
2021/09/15 10:45:25;;;;;;;14.65;13.15;;;;;;;;;;4970794;28;20039;-69
2021/09/15 10:47:54;;;;;;;14.40;12.90;;;;;;;;;;4951705;28;20055;-69
2021/09/15 10:50:40;;;;;;;14.82;12.85;;;;;;;;;;4952161;28;20053;-70
2021/09/15 10:53:14;;;;;;;13.45;11.95;;;;;;;;;;4969483;28;20125;-69
2021/09/15 10:55:42;;;;;;;14.43;12.98;;;;;;;;;;4970513;28;20049;-69
2021/09/15 10:58:11;;;;;;;15.07;12.30;;;;;;;;;;4971014;28;20050;-69
2021/09/15 11:00:49;;;;;;;12.90;11.70;;;;;;;;;;4969501;28;20486;-68
2021/09/15 11:03:24;;;;;;;12.60;10.48;;;;;;;;;;4970665;28;20047;-69
2021/09/15 11:05:51;;;;;;;12.02;10.65;;;;;;;;;;4962011;28;20043;-68
2021/09/15 11:08:23;;;;;;;13.23;10.30;;;;;;;;;;4952082;28;20047;-71
2021/09/15 11:10:50;;;;;;;11.07;8.65;;;;;;;;;;4949708;28;20047;-68
2021/09/15 11:13:18;;;;;;;10.32;9.13;;;;;;;;;;4944042;28;20047;-69
2021/09/15 11:15:46;;;;;;;11.32;8.85;;;;;;;;;;4950383;28;20488;-70
2021/09/15 11:18:21;;;;;;;11.27;8.95;;;;;;;;;;4951704;28;20047;-69
2021/09/15 11:20:53;;;;;;;12.13;8.98;;;;;;;;;;4932825;29;20047;-69
2021/09/15 11:23:20;;;;;;;11.13;8.95;;;;;;;;;;4949597;28;20105;-69
2021/09/15 11:25:50;;;;;;;9.32;8.25;;;;;;;;;;4949900;28;20039;-70
2021/09/15 11:28:18;;;;;;;10.38;8.63;;;;;;;;;;4950733;28;20051;-68
2021/09/15 11:30:58;;;;;;;12.88;9.73;;;;;;;;;;4949265;28;20042;-70
2021/09/15 11:33:27;;;;;;;9.05;8.15;;;;;;;;;;4949311;28;20111;-69
2021/09/15 11:35:57;;;;;;;13.88;8.30;;;;;;;;;;4951144;28;20517;-69
2021/09/15 11:38:26;;;;;;;10.48;8.18;;;;;;;;;;4935715;28;20051;-69
2021/09/15 11:40:53;;;;;;;12.40;9.77;;;;;;;;;;4948476;28;20047;-69
2021/09/15 11:43:21;;;;;;;10.35;9.32;;;;;;;;;;4950643;28;20126;-69
2021/09/15 11:45:49;;;;;;;11.60;9.70;;;;;;;;;;4937257;28;20039;-69
2021/09/15 11:48:27;;;;;;;13.35;9.80;;;;;;;;;;4952286;28;20055;-70
2021/09/15 11:50:55;;;;;;;11.63;10.27;;;;;;;;;;4950847;28;20114;-69
2021/09/15 11:53:23;;;;;;;11.10;9.77;;;;;;;;;;4930888;28;20051;-70
2021/09/15 11:55:59;;;;;;;10.32;9.07;;;;;;;;;;4952472;29;20035;-70
2021/09/15 11:58:27;;;;;;;11.18;9.95;;;;;;;;;;4951792;28;20043;-69
2021/09/15 12:00:54;;;;;;;12.23;9.25;;;;;;;;;;4949945;28;20048;-69
2021/09/15 12:03:25;;;;;;;9.40;8.50;;;;;;;;;;4951059;28;20043;-69
2021/09/15 12:05:54;;;;;;;9.55;8.65;;;;;;;;;;4969330;28;20054;-69
2021/09/15 12:08:22;;;;;;;11.75;9.05;;;;;;;;;;4970587;28;20071;-69
2021/09/15 12:10:50;;;;;;;10.52;9.35;;;;;;;;;;4973175;28;20043;-68
2021/09/15 12:13:18;;;;;;;11.45;8.98;;;;;;;;;;4973792;28;20136;-69
2021/09/15 12:15:45;;;;;;;10.50;8.77;;;;;;;;;;4974282;28;20049;-69
2021/09/15 12:18:13;;;;;;;9.77;7.30;;;;;;;;;;4972445;28;20415;-69
2021/09/15 12:20:41;;;;;;;8.43;7.38;;;;;;;;;;4973142;28;20046;-69
2021/09/15 12:23:10;;;;;;;12.02;7.38;;;;;;;;;;4956564;28;20055;-69
2021/09/15 12:25:37;;;;;;;7.32;6.55;;;;;;;;;;4974260;28;20043;-69
2021/09/15 12:28:06;;;;;;;7.05;6.38;;;;;;;;;;4973113;28;20442;-69
2021/09/15 12:30:34;;;;;;;8.75;6.45;;;;;;;;;;4972748;28;20045;-69
2021/09/15 12:33:02;;;;;;;7.38;6.10;;;;;;;;;;4970014;28;20038;-71
2021/09/15 12:35:34;;;;;;;8.30;5.90;;;;;;;;;;4973694;28;20277;-70
2021/09/15 12:38:02;;;;;;;8.20;5.53;;;;;;;;;;4973126;28;20062;-70
2021/09/15 12:40:31;;;;;;;8.43;5.70;;;;;;;;;;4973265;28;20415;-70
2021/09/15 12:42:59;;;;;;;7.63;6.07;;;;;;;;;;4973246;28;20053;-71
2021/09/15 12:45:27;;;;;;;11.43;6.18;;;;;;;;;;4973342;28;20039;-70
2021/09/15 12:47:54;;;;;;;7.30;5.93;;;;;;;;;;4983405;28;20333;-71
2021/09/15 12:50:22;;;;;;;8.40;6.80;;;;;;;;;;4955730;28;20051;-70
2021/09/15 12:52:50;;;;;;;8.00;5.80;;;;;;;;;;4969672;28;20518;-71
2021/09/15 12:55:21;;;;;;;7.03;5.88;;;;;;;;;;4972066;28;20046;-70
2021/09/15 12:58:00;;;;;;;8.73;5.70;;;;;;;;;;4972747;28;20057;-70
2021/09/15 13:00:30;;;;;;;8.57;5.75;;;;;;;;;;4971286;28;20074;-71
2021/09/15 13:02:58;;;;;;;8.95;5.47;;;;;;;;;;4973389;28;20137;-70
2021/09/15 13:05:25;;;;;;;6.15;4.97;;;;;;;;;;4984422;28;20514;-70
2021/09/15 13:07:54;;;;;;;7.00;5.35;;;;;;;;;;4972714;28;20042;-70
2021/09/15 13:10:22;;;;;;;6.63;5.40;;;;;;;;;;4972591;28;20069;-70
2021/09/15 13:12:49;;;;;;;7.90;5.28;;;;;;;;;;4956920;28;20089;-70
2021/09/15 13:15:18;;;;;;;9.05;5.30;;;;;;;;;;4972700;28;20497;-70
2021/09/15 13:17:46;;;;;;;9.52;5.47;;;;;;;;;;4982763;28;20187;-70
2021/09/15 13:20:14;;;;;;;9.07;5.03;;;;;;;;;;4972528;28;20034;-70
2021/09/15 13:22:41;;;;;;;7.47;4.85;;;;;;;;;;4972591;28;20586;-70
2021/09/15 13:25:09;;;;;;;6.68;4.93;;;;;;;;;;4971914;28;20039;-70
2021/09/15 13:27:37;;;;;;;7.78;5.15;;;;;;;;;;4971944;28;20039;-70
2021/09/15 13:30:04;;;;;;;5.43;4.78;;;;;;;;;;4972517;28;20077;-70
2021/09/15 13:32:33;;;;;;;8.13;4.28;;;;;;;;;;4972280;28;20061;-71
2021/09/15 13:35:00;;;;;;;5.13;4.45;;;;;;;;;;4971528;28;20073;-70
2021/09/15 13:37:28;;;;;;;6.88;4.40;;;;;;;;;;4971651;28;21170;-70
2021/09/15 13:39:56;;;;;;;5.68;3.95;;;;;;;;;;4972690;28;20173;-70
2021/09/15 13:42:24;;;;;;;4.70;3.95;;;;;;;;;;4953864;28;20047;-71
2021/09/15 13:44:51;;;;;;;7.32;4.70;;;;;;;;;;4971747;28;20042;-70
2021/09/15 13:47:19;;;;;;;8.25;5.38;;;;;;;;;;4972301;28;20498;-70
2021/09/15 13:49:48;;;;;;;7.65;5.32;;;;;;;;;;4971548;28;20055;-70
2021/09/15 13:52:15;;;;;;;6.15;5.07;;;;;;;;;;4969812;28;20479;-70
2021/09/15 13:54:43;;;;;;;10.40;5.82;;;;;;;;;;4971088;28;20050;-70
2021/09/15 13:57:11;;;;;;;5.30;4.80;;;;;;;;;;4971839;28;20502;-70
2021/09/15 13:59:39;;;;;;;6.18;5.65;;;;;;;;;;4971122;28;20304;-70
2021/09/15 14:02:07;;;;;;;8.60;5.95;;;;;;;;;;4971938;28;20056;-70
2021/09/15 14:04:35;;;;;;;8.18;5.72;;;;;;;;;;4971016;28;20051;-70
2021/09/15 14:07:04;;;;;;;7.35;5.20;;;;;;;;;;4955457;28;20050;-70
2021/09/15 14:09:32;;;;;;;8.10;5.60;;;;;;;;;;4954424;28;20554;-70
2021/09/15 14:11:59;;;;;;;6.43;4.88;;;;;;;;;;4953532;28;20043;-69
2021/09/15 14:14:26;;;;;;;9.20;5.72;;;;;;;;;;4971252;28;20038;-69
2021/09/15 14:16:54;;;;;;;6.00;5.18;;;;;;;;;;4971958;28;20129;-69
2021/09/15 14:19:21;;;;;;;6.43;5.82;;;;;;;;;;4971633;28;20138;-71
2021/09/15 14:21:49;;;;;;;9.15;6.13;;;;;;;;;;4953886;28;20307;-69
2021/09/15 14:24:17;;;;;;;6.75;5.20;;;;;;;;;;4970480;28;20046;-69
2021/09/15 14:26:45;;;;;;;5.47;4.80;;;;;;;;;;4970544;28;20521;-69
2021/09/15 14:29:12;;;;;;;8.90;5.10;;;;;;;;;;4969487;28;20043;-69
2021/09/15 14:31:39;;;;;;;8.43;5.18;;;;;;;;;;4952671;28;20138;-69
2021/09/15 14:34:07;;;;;;;5.38;4.88;;;;;;;;;;4940793;28;20078;-70
2021/09/15 14:36:34;;;;;;;7.07;5.07;;;;;;;;;;4972823;28;20043;-69
2021/09/15 14:39:02;;;;;;;9.85;5.70;;;;;;;;;;4971459;28;20533;-70
2021/09/15 14:41:30;;;;;;;6.97;5.50;;;;;;;;;;4972002;28;20049;-68
2021/09/15 14:43:59;;;;;;;12.93;5.65;;;;;;;;;;4954235;28;20047;-69
2021/09/15 14:46:27;;;;;;;10.32;5.43;;;;;;;;;;4969960;28;20101;-69
2021/09/15 14:48:54;;;;;;;5.60;5.10;;;;;;;;;;4971499;28;20050;-68
2021/09/15 14:51:22;;;;;;;6.80;5.00;;;;;;;;;;4970596;28;20046;-68
2021/09/15 14:53:49;;;;;;;7.00;4.97;;;;;;;;;;4953579;28;20050;-68
2021/09/15 14:56:17;;;;;;;6.05;4.53;;;;;;;;;;4970045;28;20043;-69
2021/09/15 14:58:46;;;;;;;6.65;4.70;;;;;;;;;;4953728;28;20470;-69
2021/09/15 15:01:13;;;;;;;7.15;4.82;;;;;;;;;;4953745;28;20130;-69
2021/09/15 15:03:41;;;;;;;7.05;4.10;;;;;;;;;;4953229;28;20344;-69
2021/09/15 15:06:09;;;;;;;6.13;4.40;;;;;;;;;;4970998;28;20043;-70
2021/09/15 15:08:36;;;;;;;7.32;4.13;;;;;;;;;;4982058;28;20054;-69
2021/09/15 15:11:04;;;;;;;7.57;3.67;;;;;;;;;;4970985;28;20407;-69
2021/09/15 15:13:32;;;;;;;4.25;3.80;;;;;;;;;;4971017;28;20043;-70
2021/09/15 15:16:00;;;;;;;5.43;4.30;;;;;;;;;;4970328;28;20495;-70
2021/09/15 15:18:28;;;;;;;6.07;4.28;;;;;;;;;;4970813;28;20097;-70
2021/09/15 15:20:55;;;;;;;8.23;4.65;;;;;;;;;;4971388;28;20110;-70
2021/09/15 15:23:23;;;;;;;7.10;4.97;;;;;;;;;;4970961;28;20058;-70
2021/09/15 15:25:52;;;;;;;7.75;5.40;;;;;;;;;;4970041;28;20042;-69
2021/09/15 15:28:20;;;;;;;6.30;4.47;;;;;;;;;;4953107;28;20062;-70
2021/09/15 15:30:48;;;;;;;7.13;4.90;;;;;;;;;;4969858;28;20055;-70
2021/09/15 15:33:17;;;;;;;8.75;5.07;;;;;;;;;;4969978;28;20097;-70
2021/09/15 15:35:45;;;;;;;5.18;4.47;;;;;;;;;;4970438;28;20034;-71
2021/09/15 15:38:13;;;;;;;8.68;4.68;;;;;;;;;;4970569;28;20038;-70
2021/09/15 15:40:42;;;;;;;7.82;5.30;;;;;;;;;;4971394;28;20482;-70
2021/09/15 15:43:10;;;;;;;8.80;6.10;;;;;;;;;;4971730;28;20053;-70
2021/09/15 15:45:37;;;;;;;8.23;6.03;;;;;;;;;;4975518;28;20405;-69
2021/09/15 15:48:05;;;;;;;8.00;5.97;;;;;;;;;;4976251;28;20086;-70
2021/09/15 15:50:34;;;;;;;8.75;5.68;;;;;;;;;;4975014;28;20138;-70
2021/09/15 15:53:02;;;;;;;6.50;5.20;;;;;;;;;;4956041;28;20438;-69
2021/09/15 15:55:29;;;;;;;7.25;5.57;;;;;;;;;;4973628;28;20069;-70
2021/09/15 15:57:56;;;;;;;7.05;5.18;;;;;;;;;;4974256;28;20553;-70
2021/09/15 16:00:24;;;;;;;10.32;5.53;;;;;;;;;;4984969;28;20049;-70
2021/09/15 16:02:52;;;;;;;8.20;5.43;;;;;;;;;;4958411;28;20070;-69
2021/09/15 16:05:20;;;;;;;7.07;5.82;;;;;;;;;;4975525;28;20070;-70
2021/09/15 16:07:49;;;;;;;9.02;6.47;;;;;;;;;;4976504;28;20050;-70
2021/09/15 16:10:17;;;;;;;11.50;7.70;;;;;;;;;;4974226;28;20047;-70
2021/09/15 16:12:45;;;;;;;7.88;7.03;;;;;;;;;;4981388;28;20061;-70
2021/09/15 16:15:13;;;;;;;17.65;7.95;;;;;;;;;;4974788;28;20039;-70
2021/09/15 16:17:41;;;;;;;17.10;10.00;;;;;;;;;;4969532;28;20062;-68
2021/09/15 16:20:10;;;;;;;10.27;9.20;;;;;;;;;;4954140;28;20043;-68
2021/09/15 16:22:37;;;;;;;15.43;10.63;;;;;;;;;;4971288;28;20050;-69
2021/09/15 16:25:07;;;;;;;12.60;11.07;;;;;;;;;;4960855;28;20415;-69
2021/09/15 16:27:34;;;;;;;12.30;9.85;;;;;;;;;;4956761;28;20046;-68
2021/09/15 16:30:02;;;;;;;12.20;10.60;;;;;;;;;;4972998;28;20047;-68
2021/09/15 16:32:29;;;;;;;13.25;10.95;;;;;;;;;;4955768;28;20085;-68
2021/09/15 16:34:57;;;;;;;16.05;10.73;;;;;;;;;;4973903;28;20133;-68
2021/09/15 16:37:24;;;;;;;12.00;10.55;;;;;;;;;;4972814;28;20050;-68
2021/09/15 16:39:52;;;;;;;11.65;9.30;;;;;;;;;;4972981;28;20038;-69
2021/09/15 16:42:21;;;;;;;9.25;8.20;;;;;;;;;;4973213;28;20110;-68
2021/09/15 16:44:49;;;;;;;8.43;7.53;;;;;;;;;;4955851;28;20046;-68
2021/09/15 16:47:16;;;;;;;7.00;6.35;;;;;;;;;;4977146;28;20049;-69
2021/09/15 16:49:44;;;;;;;9.70;6.18;;;;;;;;;;4953187;28;20039;-69
2021/09/15 16:52:11;;;;;;;10.32;6.70;;;;;;;;;;4973192;28;20068;-69
2021/09/15 16:54:39;;;;;;;6.93;6.22;;;;;;;;;;4953439;28;20070;-69
2021/09/15 16:57:06;;;;;;;7.55;6.85;;;;;;;;;;4972298;28;20066;-69
2021/09/15 16:59:35;;;;;;;9.82;7.53;;;;;;;;;;4974421;28;20046;-69
2021/09/15 17:02:03;;;;;;;7.85;7.05;;;;;;;;;;4955776;28;20046;-69
2021/09/15 17:04:30;;;;;;;8.50;7.63;;;;;;;;;;4972614;28;20601;-69
2021/09/15 17:06:58;;;;;;;9.20;8.20;;;;;;;;;;4961520;28;20054;-69
2021/09/15 17:09:25;;;;;;;9.40;8.25;;;;;;;;;;4964716;28;20046;-70
2021/09/15 17:11:53;;;;;;;10.13;7.85;;;;;;;;;;4953797;28;20126;-70
2021/09/15 17:14:22;;;;;;;11.23;7.85;;;;;;;;;;4951158;28;20519;-70
2021/09/15 17:16:51;;;;;;;9.23;7.95;;;;;;;;;;4942964;28;20035;-70
2021/09/15 17:19:19;;;;;;;11.45;8.85;;;;;;;;;;4940717;28;20054;-70
2021/09/15 17:21:47;;;;;;;11.38;8.70;;;;;;;;;;4953796;28;20046;-69
2021/09/15 17:24:14;;;;;;;12.05;8.63;;;;;;;;;;4951809;28;20047;-69
2021/09/15 17:26:42;;;;;;;12.50;8.07;;;;;;;;;;4953441;28;20140;-69
2021/09/15 17:29:09;;;;;;;11.38;8.25;;;;;;;;;;4955200;28;20035;-70
2021/09/15 17:31:37;;;;;;;9.85;7.90;;;;;;;;;;4949566;28;20053;-69
2021/09/15 17:34:06;;;;;;;13.43;8.20;;;;;;;;;;4948158;28;20530;-68
2021/09/15 17:36:34;;;;;;;10.45;7.93;;;;;;;;;;4950716;28;20583;-68
2021/09/15 17:39:01;;;;;;;11.18;8.15;;;;;;;;;;4950972;28;20444;-68
2021/09/15 17:41:29;;;;;;;12.95;8.63;;;;;;;;;;4951663;28;20051;-68
2021/09/15 17:43:56;;;;;;;10.70;8.50;;;;;;;;;;4949997;28;20051;-68
2021/09/15 17:46:24;;;;;;;10.32;9.02;;;;;;;;;;4950743;28;20066;-68
2021/09/15 17:48:51;;;;;;;10.85;7.70;;;;;;;;;;4946662;28;20115;-69
2021/09/15 17:51:20;;;;;;;9.30;7.43;;;;;;;;;;4953664;28;20558;-69
2021/09/15 17:53:48;;;;;;;8.73;7.57;;;;;;;;;;4949370;28;20398;-69
2021/09/15 17:56:15;;;;;;;14.07;8.35;;;;;;;;;;4951062;28;20470;-69
2021/09/15 17:58:43;;;;;;;10.23;8.55;;;;;;;;;;4951146;28;20047;-69
2021/09/15 18:01:10;;;;;;;9.43;8.27;;;;;;;;;;4950742;28;20047;-70
2021/09/15 18:03:38;;;;;;;14.50;9.85;;;;;;;;;;4953305;28;20042;-70
2021/09/15 18:06:06;;;;;;;12.68;9.48;;;;;;;;;;4938233;28;20055;-69
2021/09/15 18:08:35;;;;;;;9.43;8.43;;;;;;;;;;4971108;28;20051;-69
2021/09/15 18:11:02;;;;;;;10.63;8.43;;;;;;;;;;4966682;28;20043;-70
2021/09/15 18:13:30;;;;;;;15.10;9.57;;;;;;;;;;4971366;28;20498;-70
2021/09/15 18:15:57;;;;;;;9.13;7.88;;;;;;;;;;4982035;28;20071;-69
2021/09/15 18:18:24;;;;;;;8.80;7.95;;;;;;;;;;4971432;28;20043;-69
2021/09/15 18:20:52;;;;;;;14.27;10.07;;;;;;;;;;4971117;28;20453;-70
2021/09/15 18:23:19;;;;;;;12.48;9.80;;;;;;;;;;4970979;28;20039;-70
2021/09/15 18:25:48;;;;;;;12.63;9.27;;;;;;;;;;4954079;28;20074;-70
2021/09/15 18:28:16;;;;;;;10.77;9.70;;;;;;;;;;4970770;28;20058;-70
2021/09/15 18:30:45;;;;;;;10.27;9.25;;;;;;;;;;4970826;28;20065;-70
2021/09/15 18:33:13;;;;;;;9.45;8.55;;;;;;;;;;4971178;28;20042;-70
2021/09/15 18:35:40;;;;;;;12.15;9.55;;;;;;;;;;4971279;28;20039;-70
2021/09/15 18:38:08;;;;;;;15.43;10.27;;;;;;;;;;4970454;28;20035;-70
2021/09/15 18:40:40;;;;;;;14.27;10.35;;;;;;;;;;4970644;28;20122;-70
2021/09/15 18:43:10;;;;;;;14.32;10.60;;;;;;;;;;4954844;28;20131;-70
2021/09/15 18:45:37;;;;;;;12.43;11.10;;;;;;;;;;4970783;28;20536;-70
2021/09/15 18:48:05;;;;;;;15.75;10.52;;;;;;;;;;4966392;28;20038;-69
2021/09/15 18:50:33;;;;;;;12.00;8.07;;;;;;;;;;4959173;28;20070;-70
2021/09/15 18:53:00;;;;;;;9.25;7.57;;;;;;;;;;4968476;28;20051;-70
2021/09/15 18:55:29;;;;;;;9.90;7.30;;;;;;;;;;4970625;28;20077;-70
2021/09/15 18:57:56;;;;;;;8.05;6.03;;;;;;;;;;4953197;28;20043;-70
2021/09/15 19:00:25;;;;;;;12.70;7.38;;;;;;;;;;4970531;28;20061;-70
2021/09/15 19:02:53;;;;;;;12.93;7.35;;;;;;;;;;4971232;28;20053;-70
2021/09/15 19:05:22;;;;;;;11.07;7.38;;;;;;;;;;4956906;28;20504;-70
2021/09/15 19:07:50;;;;;;;8.82;6.20;;;;;;;;;;4949745;28;20049;-70
2021/09/15 19:10:18;;;;;;;10.23;6.45;;;;;;;;;;4926595;29;20519;-70
2021/09/15 19:12:47;;;;;;;9.18;5.57;;;;;;;;;;4950770;28;20055;-70
2021/09/15 19:15:17;;;;;;;10.85;5.63;;;;;;;;;;4950829;28;20565;-70
2021/09/15 19:17:47;;;;;;;7.22;4.97;;;;;;;;;;4949851;28;20208;-70
2021/09/15 19:20:14;;;;;;;8.73;5.95;;;;;;;;;;4955633;28;20474;-70
2021/09/15 19:22:42;;;;;;;13.90;7.93;;;;;;;;;;4938298;29;20043;-70
2021/09/15 19:25:10;;;;;;;14.75;8.35;;;;;;;;;;4953852;28;20043;-70
2021/09/15 19:27:37;;;;;;;6.20;5.13;;;;;;;;;;4954417;28;20131;-70